Time;durP1;ratioP1;P1;durP2;ratioP2;P2;SDS_P1;SDS_P2;PMS_P1;PMS_P2;Temp;Humidity;BMP_temperature;BMP_pressure;BME280_temperature;BME280_humidity;BME280_pressure;Samples;Min_cycle;Max_cycle;Signal;HPM_P1;HPM_P2
2023/09/21 00:01:06;;;;;;;70.00;65.82;;;19.90;99.90;;;;;;5050795;28;20036;-71
2023/09/21 00:03:35;;;;;;;65.03;61.50;;;19.80;99.90;;;;;;5054492;28;20045;-70
2023/09/21 00:06:01;;;;;;;70.88;66.95;;;19.80;99.90;;;;;;5053318;28;20033;-71
2023/09/21 00:08:27;;;;;;;73.03;69.00;;;19.90;99.90;;;;;;5053432;28;20029;-71
2023/09/21 00:10:54;;;;;;;63.58;60.05;;;20.00;99.90;;;;;;5054220;28;20479;-70
2023/09/21 00:13:22;;;;;;;66.57;62.78;;;20.00;99.90;;;;;;5054182;28;20052;-70
2023/09/21 00:15:49;;;;;;;63.42;59.92;;;20.00;99.90;;;;;;5053705;28;20033;-71
2023/09/21 00:18:15;;;;;;;69.80;65.82;;;20.00;99.90;;;;;;5054372;28;20048;-71
2023/09/21 00:20:43;;;;;;;66.43;62.78;;;20.00;99.90;;;;;;5054176;28;20045;-71
2023/09/21 00:23:09;;;;;;;74.07;69.97;;;20.00;99.90;;;;;;5053209;28;20032;-71
2023/09/21 00:25:38;;;;;;;68.10;64.07;;;19.90;99.90;;;;;;5054658;28;20037;-71
2023/09/21 00:28:12;;;;;;;61.00;57.45;;;19.90;99.90;;;;;;5053125;28;20029;-71
2023/09/21 00:30:39;;;;;;;69.07;65.28;;;19.90;99.90;;;;;;5053913;28;20041;-71
2023/09/21 00:33:08;;;;;;;65.32;61.55;;;19.90;99.90;;;;;;5054269;28;20056;-71
2023/09/21 00:35:39;;;;;;;64.57;61.03;;;19.90;99.90;;;;;;5052291;28;20041;-70
2023/09/21 00:38:10;;;;;;;64.93;61.00;;;20.00;99.90;;;;;;5054085;28;20414;-70
2023/09/21 00:40:38;;;;;;;62.47;58.90;;;20.00;99.90;;;;;;5053262;28;20391;-71
2023/09/21 00:43:06;;;;;;;61.55;57.67;;;20.00;99.90;;;;;;5052239;28;20407;-71
2023/09/21 00:45:41;;;;;;;69.25;65.30;;;20.00;99.90;;;;;;5053406;28;20033;-72
2023/09/21 00:48:09;;;;;;;74.78;70.47;;;20.00;99.90;;;;;;5052914;28;20032;-71
2023/09/21 00:50:36;;;;;;;74.55;70.53;;;20.00;99.90;;;;;;5052244;28;20088;-71
2023/09/21 00:53:04;;;;;;;76.95;72.82;;;20.00;99.90;;;;;;5052595;28;20032;-71
2023/09/21 00:55:31;;;;;;;79.30;74.90;;;20.00;99.90;;;;;;5051846;28;20803;-70
2023/09/21 00:58:00;;;;;;;73.03;68.93;;;19.90;99.90;;;;;;5052078;28;20427;-71
2023/09/21 01:00:26;;;;;;;68.45;64.60;;;20.00;99.90;;;;;;5051547;28;20496;-71
2023/09/21 01:02:53;;;;;;;67.90;64.00;;;20.00;99.90;;;;;;5052595;28;20037;-70
2023/09/21 01:05:21;;;;;;;65.60;61.75;;;20.00;99.90;;;;;;5051981;28;20029;-71
2023/09/21 01:07:50;;;;;;;85.60;80.70;;;20.00;99.90;;;;;;5053666;28;20482;-71
2023/09/21 01:10:19;;;;;;;83.22;78.38;;;19.90;99.90;;;;;;5052753;28;20032;-70
2023/09/21 01:12:51;;;;;;;78.45;74.07;;;19.90;99.90;;;;;;5052923;28;20044;-70
2023/09/21 01:15:17;;;;;;;81.53;76.95;;;19.90;99.90;;;;;;5051297;28;20043;-71
2023/09/21 01:17:45;;;;;;;82.90;78.55;;;19.90;99.90;;;;;;5052121;28;20033;-71
2023/09/21 01:20:28;;;;;;;77.15;72.57;;;19.90;99.90;;;;;;5051877;28;20037;-71
2023/09/21 01:23:14;;;;;;;82.03;77.40;;;19.90;99.90;;;;;;5037748;28;20491;-71
2023/09/21 01:25:42;;;;;;;79.15;74.88;;;19.90;99.90;;;;;;5035861;28;20028;-70
2023/09/21 01:28:16;;;;;;;82.45;77.82;;;20.00;99.90;;;;;;5052055;28;20376;-70
2023/09/21 01:30:46;;;;;;;71.80;67.80;;;19.90;99.90;;;;;;5052305;28;20040;-70
2023/09/21 01:33:12;;;;;;;70.07;66.10;;;19.90;99.90;;;;;;5051970;28;20048;-71
2023/09/21 01:35:38;;;;;;;73.18;68.60;;;19.80;99.90;;;;;;5052670;28;20021;-71
2023/09/21 01:38:08;;;;;;;67.03;63.00;;;19.80;99.90;;;;;;5052896;28;20058;-70
2023/09/21 01:40:34;;;;;;;89.75;84.72;;;19.70;99.90;;;;;;5035268;28;20036;-70
2023/09/21 01:43:08;;;;;;;73.38;69.28;;;19.80;99.90;;;;;;5051746;28;20460;-71
2023/09/21 01:45:34;;;;;;;83.53;78.68;;;19.70;99.90;;;;;;5051894;28;20029;-70
2023/09/21 01:48:01;;;;;;;77.65;73.43;;;19.70;99.90;;;;;;5052977;28;20029;-71
2023/09/21 01:50:28;;;;;;;69.25;65.32;;;19.60;99.90;;;;;;5052481;28;20032;-71
2023/09/21 01:52:55;;;;;;;73.63;69.35;;;19.70;99.90;;;;;;5052521;28;20053;-70
2023/09/21 01:55:22;;;;;;;78.30;73.93;;;19.60;99.90;;;;;;5051216;28;20037;-70
2023/09/21 01:57:48;;;;;;;76.65;72.25;;;19.60;99.90;;;;;;5052727;28;20025;-71
2023/09/21 02:00:27;;;;;;;81.57;76.63;;;19.60;99.90;;;;;;5051730;28;20492;-70
2023/09/21 02:02:54;;;;;;;86.15;81.50;;;19.50;99.90;;;;;;5052703;28;20045;-70
2023/09/21 02:05:20;;;;;;;79.50;74.38;;;19.60;99.90;;;;;;5052235;28;20387;-71
2023/09/21 02:07:47;;;;;;;72.20;67.70;;;19.60;99.90;;;;;;5050924;28;20044;-70
2023/09/21 02:10:17;;;;;;;86.65;81.60;;;19.60;99.90;;;;;;5052094;28;20041;-71
2023/09/21 02:12:56;;;;;;;85.50;80.63;;;19.60;99.90;;;;;;5052805;28;20079;-71
2023/09/21 02:15:26;;;;;;;75.28;70.72;;;19.60;99.90;;;;;;5051806;28;20052;-70
2023/09/21 02:17:54;;;;;;;75.72;71.18;;;19.60;99.90;;;;;;5052361;28;20052;-71
2023/09/21 02:20:20;;;;;;;81.50;76.43;;;19.60;99.90;;;;;;5050744;28;20040;-71
2023/09/21 02:22:47;;;;;;;91.97;86.63;;;19.50;99.90;;;;;;5050298;28;20052;-70
2023/09/21 02:25:14;;;;;;;77.40;72.70;;;19.50;99.90;;;;;;5051589;28;20036;-71
2023/09/21 02:27:41;;;;;;;80.10;75.25;;;19.40;99.90;;;;;;5052389;28;20044;-70
2023/09/21 02:30:16;;;;;;;77.30;72.57;;;19.40;99.90;;;;;;5051683;28;20017;-70
2023/09/21 02:32:43;;;;;;;82.65;77.65;;;19.40;99.90;;;;;;5051223;28;20052;-71
2023/09/21 02:35:16;;;;;;;86.90;81.82;;;19.40;99.90;;;;;;5051830;28;20032;-71
2023/09/21 02:37:44;;;;;;;93.75;88.32;;;19.40;99.90;;;;;;5051999;28;20053;-70
2023/09/21 02:40:16;;;;;;;87.93;82.90;;;19.40;99.90;;;;;;5050094;28;20033;-70
2023/09/21 02:42:46;;;;;;;86.18;81.40;;;19.40;99.90;;;;;;5052165;28;20029;-70
2023/09/21 02:45:12;;;;;;;83.05;78.38;;;19.40;99.90;;;;;;5051211;28;20375;-70
2023/09/21 02:47:39;;;;;;;82.22;77.25;;;19.40;99.90;;;;;;5051995;28;20036;-71
2023/09/21 02:50:14;;;;;;;91.75;86.63;;;19.40;99.90;;;;;;5052002;28;20025;-71
2023/09/21 02:52:56;;;;;;;82.82;77.97;;;19.40;99.90;;;;;;5051769;28;20049;-71
2023/09/21 02:55:23;;;;;;;71.45;67.53;;;19.40;99.90;;;;;;5051815;28;20044;-71
2023/09/21 02:58:01;;;;;;;72.35;68.20;;;19.40;99.90;;;;;;5052019;28;20025;-71
2023/09/21 03:00:34;;;;;;;78.75;74.40;;;19.40;99.90;;;;;;5051327;28;20026;-71
2023/09/21 03:03:01;;;;;;;88.93;83.65;;;19.40;99.90;;;;;;5052102;28;20063;-71
2023/09/21 03:05:27;;;;;;;89.82;84.57;;;19.30;99.90;;;;;;5050986;28;20060;-70
2023/09/21 03:07:54;;;;;;;90.68;85.68;;;19.30;99.90;;;;;;5051773;28;20025;-71
2023/09/21 03:10:21;;;;;;;86.45;81.47;;;19.30;99.90;;;;;;5051515;28;20065;-70
2023/09/21 03:12:51;;;;;;;91.40;86.30;;;19.30;99.90;;;;;;5051963;28;20041;-73
2023/09/21 03:15:19;;;;;;;77.72;73.53;;;19.30;99.90;;;;;;5051075;28;20053;-73
2023/09/21 03:17:46;;;;;;;79.50;75.10;;;19.30;99.90;;;;;;5051969;28;20053;-73
2023/09/21 03:20:19;;;;;;;77.63;73.47;;;19.30;99.90;;;;;;5050915;28;20025;-73
2023/09/21 03:22:46;;;;;;;70.18;66.35;;;19.30;99.90;;;;;;5051926;28;20045;-73
2023/09/21 03:25:16;;;;;;;74.93;70.90;;;19.40;99.90;;;;;;5049785;28;20033;-73
2023/09/21 03:27:42;;;;;;;83.00;78.50;;;19.40;99.90;;;;;;5050311;28;20049;-72
2023/09/21 03:30:11;;;;;;;92.72;87.57;;;19.40;99.90;;;;;;5051247;28;20037;-72
2023/09/21 03:32:41;;;;;;;81.45;77.20;;;19.40;99.90;;;;;;5051670;28;20052;-73
2023/09/21 03:35:11;;;;;;;81.45;76.97;;;19.30;99.90;;;;;;5052818;28;20052;-72
2023/09/21 03:37:38;;;;;;;73.45;69.10;;;19.30;99.90;;;;;;5047078;28;20066;-72
2023/09/21 03:40:06;;;;;;;79.07;74.78;;;19.20;99.90;;;;;;5055115;28;20040;-71
2023/09/21 03:42:33;;;;;;;75.93;71.85;;;19.30;99.90;;;;;;5054840;28;20622;-72
2023/09/21 03:44:59;;;;;;;78.15;73.95;;;19.30;99.90;;;;;;5054273;28;20064;-72
2023/09/21 03:47:25;;;;;;;76.82;72.85;;;19.40;99.90;;;;;;5054486;28;20045;-72
2023/09/21 03:49:51;;;;;;;79.70;75.35;;;19.30;99.90;;;;;;5054979;28;20407;-72
2023/09/21 03:52:17;;;;;;;69.95;65.78;;;19.30;99.90;;;;;;5054592;28;20045;-72
2023/09/21 03:54:46;;;;;;;69.50;65.57;;;19.20;99.90;;;;;;5055354;28;20039;-72
2023/09/21 03:57:14;;;;;;;70.75;66.90;;;19.20;99.90;;;;;;5055207;28;20378;-72
2023/09/21 03:59:40;;;;;;;62.50;58.95;;;19.20;99.90;;;;;;5055547;28;20043;-72
2023/09/21 04:02:07;;;;;;;66.10;62.42;;;19.20;99.90;;;;;;5054009;28;20483;-72
2023/09/21 04:04:33;;;;;;;57.58;54.40;;;19.10;99.90;;;;;;5054954;28;20041;-72
2023/09/21 04:06:59;;;;;;;67.38;63.85;;;19.10;99.90;;;;;;5054804;28;20041;-72
2023/09/21 04:09:26;;;;;;;63.92;60.42;;;19.20;99.90;;;;;;5054772;28;20025;-72
2023/09/21 04:11:52;;;;;;;64.00;60.72;;;19.10;99.90;;;;;;5054360;28;20041;-72
2023/09/21 04:14:18;;;;;;;60.67;57.47;;;19.10;99.90;;;;;;5054687;28;20048;-72
2023/09/21 04:16:44;;;;;;;60.85;57.70;;;19.10;99.90;;;;;;5053565;28;20052;-71
2023/09/21 04:19:10;;;;;;;60.17;56.60;;;19.10;99.90;;;;;;5054176;28;20048;-69
2023/09/21 04:21:36;;;;;;;66.80;63.28;;;19.00;99.90;;;;;;5054594;28;20047;-69
2023/09/21 04:24:03;;;;;;;62.70;58.95;;;19.10;99.90;;;;;;5054435;28;20021;-69
2023/09/21 04:26:29;;;;;;;58.47;55.30;;;19.00;99.90;;;;;;5054180;28;20036;-70
2023/09/21 04:28:56;;;;;;;70.75;66.65;;;19.00;99.90;;;;;;5054339;28;20052;-69
2023/09/21 04:31:22;;;;;;;63.17;59.20;;;19.10;99.90;;;;;;5053437;28;20040;-69
2023/09/21 04:33:48;;;;;;;64.18;60.55;;;19.00;99.90;;;;;;5053920;28;20037;-69
2023/09/21 04:36:14;;;;;;;63.75;60.17;;;19.00;99.90;;;;;;5034599;28;20041;-69
2023/09/21 04:38:42;;;;;;;53.97;50.83;;;18.90;99.90;;;;;;5034256;28;20037;-68
2023/09/21 04:41:14;;;;;;;43.85;41.45;;;18.90;99.90;;;;;;5041985;28;20033;-68
2023/09/21 04:43:41;;;;;;;53.35;50.33;;;18.80;99.90;;;;;;5052742;28;20048;-68
2023/09/21 04:46:08;;;;;;;39.03;36.63;;;18.90;99.90;;;;;;5051061;28;20036;-68
2023/09/21 04:48:36;;;;;;;49.33;46.30;;;18.90;99.90;;;;;;5053954;28;20048;-68
2023/09/21 04:51:02;;;;;;;53.92;51.17;;;18.90;99.90;;;;;;5053471;28;20033;-68
2023/09/21 04:53:29;;;;;;;68.57;64.88;;;18.90;99.90;;;;;;5053712;28;20051;-68
2023/09/21 04:55:55;;;;;;;51.42;48.83;;;18.80;99.90;;;;;;5053549;28;20075;-68
2023/09/21 04:58:23;;;;;;;62.28;59.00;;;18.60;99.90;;;;;;5053704;28;20032;-68
2023/09/21 05:00:50;;;;;;;64.40;61.20;;;18.60;99.90;;;;;;5052831;28;20029;-68
2023/09/21 05:03:16;;;;;;;63.10;59.65;;;18.50;99.90;;;;;;5053386;28;20052;-68
2023/09/21 05:05:42;;;;;;;64.85;61.63;;;18.50;99.90;;;;;;5051618;28;20487;-70
2023/09/21 05:08:09;;;;;;;62.67;59.58;;;18.40;99.90;;;;;;5053615;28;20029;-70
2023/09/21 05:10:35;;;;;;;68.80;65.43;;;18.50;99.90;;;;;;5053230;28;20033;-70
2023/09/21 05:13:02;;;;;;;70.05;66.53;;;18.50;99.90;;;;;;5053472;28;20047;-70
2023/09/21 05:15:28;;;;;;;66.45;63.05;;;18.50;99.90;;;;;;5052396;28;20048;-70
2023/09/21 05:17:54;;;;;;;68.10;64.60;;;18.40;99.90;;;;;;5035446;28;20037;-68
2023/09/21 05:20:20;;;;;;;59.33;56.35;;;18.50;99.90;;;;;;5068157;28;20041;-68
2023/09/21 05:22:47;;;;;;;61.60;58.15;;;18.50;99.90;;;;;;5052324;28;20040;-73
2023/09/21 05:25:13;;;;;;;61.13;58.03;;;18.60;99.90;;;;;;5053111;28;20041;-74
2023/09/21 05:27:41;;;;;;;56.40;53.38;;;18.60;99.90;;;;;;5053545;28;20041;-74
2023/09/21 05:30:10;;;;;;;53.65;50.65;;;18.60;99.90;;;;;;5052996;28;20036;-73
2023/09/21 05:32:37;;;;;;;54.92;52.17;;;18.60;99.90;;;;;;5052863;28;20484;-74
2023/09/21 05:35:06;;;;;;;55.40;52.65;;;18.70;99.90;;;;;;5051813;28;20049;-73
2023/09/21 05:37:34;;;;;;;58.70;55.65;;;18.60;99.90;;;;;;5053064;28;20036;-73
2023/09/21 05:40:05;;;;;;;54.28;51.42;;;18.60;99.90;;;;;;5052617;28;20045;-74
2023/09/21 05:42:31;;;;;;;57.08;54.17;;;18.50;99.90;;;;;;5053053;28;20460;-73
2023/09/21 05:44:58;;;;;;;64.38;61.10;;;18.40;99.90;;;;;;5052820;28;20025;-74
2023/09/21 05:47:25;;;;;;;53.13;50.45;;;18.30;99.90;;;;;;5052332;28;20040;-72
2023/09/21 05:49:51;;;;;;;51.60;48.92;;;18.30;99.90;;;;;;5053179;28;20044;-74
2023/09/21 05:52:18;;;;;;;61.63;58.50;;;18.30;99.90;;;;;;5052679;28;20395;-73
2023/09/21 05:54:45;;;;;;;50.53;47.90;;;18.20;99.90;;;;;;5052668;28;20041;-73
2023/09/21 05:57:11;;;;;;;59.05;56.10;;;18.10;99.90;;;;;;5052472;28;20041;-74
2023/09/21 05:59:38;;;;;;;79.28;75.20;;;18.00;99.90;;;;;;5052484;28;20021;-74
2023/09/21 06:02:13;;;;;;;104.75;99.50;;;17.90;99.90;;;;;;5052412;28;20403;-72
2023/09/21 06:04:40;;;;;;;94.53;89.72;;;17.80;99.90;;;;;;5052786;28;20044;-74
2023/09/21 06:07:06;;;;;;;101.65;96.43;;;17.60;99.90;;;;;;5052385;28;20032;-73
2023/09/21 06:09:33;;;;;;;98.53;93.60;;;17.50;99.90;;;;;;5052511;28;20036;-73
2023/09/21 06:11:59;;;;;;;87.95;83.35;;;17.40;99.90;;;;;;5052366;28;20024;-74
2023/09/21 06:14:25;;;;;;;93.30;88.60;;;17.30;99.90;;;;;;5052043;28;20395;-73
2023/09/21 06:16:51;;;;;;;93.00;88.25;;;17.20;99.90;;;;;;5051898;28;20033;-73
2023/09/21 06:19:18;;;;;;;84.60;80.22;;;17.20;99.90;;;;;;5052471;28;20032;-74
2023/09/21 06:21:50;;;;;;;87.68;83.03;;;17.20;99.90;;;;;;5052386;28;20037;-74
2023/09/21 06:24:17;;;;;;;81.32;77.05;;;17.20;99.90;;;;;;5052287;28;20040;-74
2023/09/21 06:26:44;;;;;;;91.43;86.80;;;17.30;99.90;;;;;;5051799;28;20060;-69
2023/09/21 06:29:10;;;;;;;106.30;100.68;;;17.40;99.90;;;;;;5051839;28;20033;-69
2023/09/21 06:31:36;;;;;;;97.25;92.22;;;17.30;99.90;;;;;;5051780;28;20368;-69
2023/09/21 06:34:06;;;;;;;86.53;81.75;;;17.20;99.90;;;;;;5052138;28;20033;-69
2023/09/21 06:36:33;;;;;;;100.35;95.00;;;17.20;99.90;;;;;;5051995;28;20040;-70
2023/09/21 06:38:59;;;;;;;90.55;85.80;;;17.40;99.90;;;;;;5051869;28;20495;-69
2023/09/21 06:41:26;;;;;;;82.43;78.07;;;17.40;99.90;;;;;;5051733;28;20032;-70
2023/09/21 06:43:53;;;;;;;77.05;72.40;;;17.50;99.90;;;;;;5050602;28;20025;-70
2023/09/21 06:46:19;;;;;;;81.15;76.78;;;17.50;99.90;;;;;;5051365;28;20037;-69
2023/09/21 06:48:45;;;;;;;78.45;73.90;;;17.50;99.90;;;;;;5051995;28;20060;-69
2023/09/21 06:51:12;;;;;;;108.70;102.90;;;17.60;99.90;;;;;;5051667;28;20021;-70
2023/09/21 06:53:38;;;;;;;100.22;94.97;;;17.70;99.90;;;;;;5050493;28;20033;-69
2023/09/21 06:56:05;;;;;;;114.88;108.93;;;17.70;99.90;;;;;;5051705;28;20475;-69
2023/09/21 06:58:32;;;;;;;115.78;109.75;;;17.80;99.90;;;;;;5051824;28;20036;-70
2023/09/21 07:00:58;;;;;;;90.75;86.10;;;17.70;99.90;;;;;;5051314;28;20036;-70
2023/09/21 07:03:25;;;;;;;88.53;83.95;;;17.60;99.90;;;;;;5052008;28;20472;-70
2023/09/21 07:05:51;;;;;;;82.25;78.10;;;17.70;99.90;;;;;;5051440;28;20047;-67
2023/09/21 07:08:19;;;;;;;84.53;79.95;;;17.70;99.90;;;;;;5051788;28;20488;-67
2023/09/21 07:10:46;;;;;;;93.45;88.75;;;17.80;99.90;;;;;;5052859;28;20036;-67
2023/09/21 07:13:13;;;;;;;100.40;94.68;;;17.80;99.90;;;;;;5055304;28;20041;-69
2023/09/21 07:15:39;;;;;;;86.68;82.20;;;17.90;99.90;;;;;;5054863;28;20415;-68
2023/09/21 07:18:06;;;;;;;109.10;103.20;;;17.90;99.90;;;;;;5055729;28;20025;-67
2023/09/21 07:20:33;;;;;;;133.75;126.80;;;17.80;99.90;;;;;;5054023;28;20029;-67
2023/09/21 07:22:59;;;;;;;148.52;140.68;;;17.90;99.90;;;;;;5055568;28;20021;-67
2023/09/21 07:25:25;;;;;;;97.10;92.15;;;17.80;99.90;;;;;;5055530;28;20036;-67
2023/09/21 07:27:54;;;;;;;117.13;111.15;;;17.80;99.90;;;;;;5053789;28;20682;-67
2023/09/21 07:30:25;;;;;;;112.18;106.00;;;17.80;99.90;;;;;;5054766;28;20041;-68
2023/09/21 07:32:54;;;;;;;98.22;92.93;;;17.80;99.90;;;;;;5055454;28;20044;-67
2023/09/21 07:35:21;;;;;;;92.55;87.68;;;17.80;99.90;;;;;;5055175;28;20025;-67
2023/09/21 07:37:49;;;;;;;98.63;93.32;;;17.80;99.90;;;;;;5055273;28;20033;-67
2023/09/21 07:40:16;;;;;;;102.55;97.20;;;17.60;99.90;;;;;;5054785;28;20029;-67
2023/09/21 07:42:43;;;;;;;91.55;86.70;;;17.70;99.90;;;;;;5055004;28;20029;-68
2023/09/21 07:45:10;;;;;;;91.85;87.13;;;17.80;99.90;;;;;;5054689;28;20029;-68
2023/09/21 07:47:37;;;;;;;99.45;94.30;;;17.80;99.90;;;;;;5053525;28;20044;-67
2023/09/21 07:50:05;;;;;;;99.28;94.15;;;17.80;99.90;;;;;;5054999;28;20029;-67
2023/09/21 07:52:33;;;;;;;101.93;96.45;;;17.80;99.90;;;;;;5053446;28;20033;-67
2023/09/21 07:55:02;;;;;;;95.43;90.32;;;17.90;99.90;;;;;;5053808;28;20475;-67
2023/09/21 07:57:36;;;;;;;102.45;96.75;;;17.90;99.90;;;;;;5054148;28;20040;-67
2023/09/21 08:00:05;;;;;;;97.10;91.93;;;17.90;99.90;;;;;;5055021;28;20072;-73
2023/09/21 08:02:31;;;;;;;101.60;95.97;;;17.90;99.90;;;;;;5054582;28;20045;-73
2023/09/21 08:04:57;;;;;;;96.63;91.53;;;17.90;99.90;;;;;;5055034;28;20033;-74
2023/09/21 08:07:26;;;;;;;114.15;108.18;;;17.80;99.90;;;;;;5054398;28;20028;-73
2023/09/21 08:09:56;;;;;;;103.05;97.53;;;17.90;99.90;;;;;;5054691;28;20045;-74
2023/09/21 08:12:23;;;;;;;97.82;92.45;;;17.90;99.90;;;;;;5054217;28;20044;-73
2023/09/21 08:14:49;;;;;;;105.05;99.75;;;17.90;99.90;;;;;;5053406;28;20053;-73
2023/09/21 08:17:16;;;;;;;119.40;112.93;;;17.90;99.90;;;;;;5054104;28;20063;-74
2023/09/21 08:19:42;;;;;;;94.95;90.15;;;18.00;99.90;;;;;;5054649;28;20036;-74
2023/09/21 08:22:08;;;;;;;91.70;86.93;;;17.90;99.90;;;;;;5052743;28;20040;-73
2023/09/21 08:24:35;;;;;;;100.28;95.05;;;17.90;99.90;;;;;;5054205;28;20037;-74
2023/09/21 08:27:04;;;;;;;117.20;110.55;;;17.90;99.90;;;;;;5054215;28;20056;-73
2023/09/21 08:29:30;;;;;;;110.50;104.70;;;17.90;99.90;;;;;;5054641;28;20051;-73
2023/09/21 08:31:57;;;;;;;95.45;90.38;;;17.90;99.90;;;;;;5053597;28;20048;-73
2023/09/21 08:34:24;;;;;;;97.47;91.90;;;17.90;99.90;;;;;;5052598;28;20061;-73
2023/09/21 08:36:50;;;;;;;95.10;90.13;;;17.90;99.90;;;;;;5047886;28;20400;-73
2023/09/21 08:39:17;;;;;;;98.78;93.20;;;17.80;99.90;;;;;;5033733;28;20494;-74
2023/09/21 08:41:48;;;;;;;98.07;92.95;;;17.70;99.90;;;;;;5046636;28;20037;-74
2023/09/21 08:44:14;;;;;;;86.72;82.30;;;17.80;99.90;;;;;;5054427;28;20041;-73
2023/09/21 08:46:40;;;;;;;96.43;91.18;;;17.80;99.90;;;;;;5053489;28;20439;-73
2023/09/21 08:49:07;;;;;;;102.40;97.20;;;17.90;99.90;;;;;;5052145;28;20032;-73
2023/09/21 08:51:37;;;;;;;105.15;99.70;;;17.90;99.90;;;;;;5052424;28;20041;-73
2023/09/21 08:54:04;;;;;;;113.47;107.13;;;18.00;99.90;;;;;;5052155;28;20072;-73
2023/09/21 08:56:33;;;;;;;111.32;105.57;;;18.00;99.90;;;;;;5052292;28;20272;-73
2023/09/21 08:59:01;;;;;;;109.57;104.15;;;18.00;99.90;;;;;;5036106;28;20041;-73
2023/09/21 09:01:27;;;;;;;110.22;104.35;;;18.00;99.90;;;;;;5053157;28;20049;-67
2023/09/21 09:03:54;;;;;;;116.65;110.63;;;18.10;99.90;;;;;;5053638;28;20033;-67
2023/09/21 09:06:20;;;;;;;107.63;101.93;;;18.00;99.90;;;;;;5053334;28;20033;-67
2023/09/21 09:08:47;;;;;;;110.78;105.03;;;18.10;99.90;;;;;;5053130;28;20036;-67
2023/09/21 09:11:40;;;;;;;123.10;116.68;;;18.10;99.90;;;;;;5051733;28;20053;-67
2023/09/21 09:14:14;;;;;;;100.78;95.18;;;18.10;99.90;;;;;;5047718;28;20357;-67
2023/09/21 09:16:40;;;;;;;117.30;111.30;;;18.10;99.90;;;;;;5052792;28;20044;-67
2023/09/21 09:19:06;;;;;;;120.20;113.97;;;18.10;99.90;;;;;;5053325;28;20108;-67
2023/09/21 09:21:32;;;;;;;91.18;86.38;;;18.10;99.90;;;;;;5052966;28;20379;-67
2023/09/21 09:24:00;;;;;;;116.32;110.22;;;18.10;99.90;;;;;;5051928;28;20146;-67
2023/09/21 09:26:26;;;;;;;119.72;113.70;;;18.10;99.90;;;;;;5051558;28;20364;-67
2023/09/21 09:29:06;;;;;;;113.47;107.78;;;18.10;99.90;;;;;;5051987;28;20507;-67
2023/09/21 09:31:38;;;;;;;130.45;123.63;;;18.20;99.90;;;;;;5052669;28;20037;-67
2023/09/21 09:34:04;;;;;;;119.45;113.18;;;18.20;99.90;;;;;;5051432;28;20382;-67
2023/09/21 09:36:32;;;;;;;110.18;104.43;;;18.20;99.90;;;;;;5067390;28;20391;-67
2023/09/21 09:39:07;;;;;;;107.10;101.20;;;18.30;99.90;;;;;;5051132;28;20056;-67
2023/09/21 09:41:34;;;;;;;112.00;106.20;;;18.30;99.90;;;;;;5051406;28;20025;-67
2023/09/21 09:44:00;;;;;;;98.15;92.95;;;18.30;99.90;;;;;;5068376;28;20037;-67
2023/09/21 09:46:27;;;;;;;114.45;108.40;;;18.30;99.90;;;;;;5050828;28;20025;-67
2023/09/21 09:48:57;;;;;;;129.90;123.00;;;18.30;99.90;;;;;;5051636;28;20487;-67
2023/09/21 09:51:30;;;;;;;124.03;117.40;;;18.30;99.90;;;;;;5050898;28;20037;-67
2023/09/21 09:53:56;;;;;;;125.03;118.70;;;18.40;99.90;;;;;;5051470;28;20044;-67
2023/09/21 09:56:23;;;;;;;141.93;134.57;;;18.40;99.90;;;;;;5051025;28;20041;-67
2023/09/21 09:58:50;;;;;;;148.73;141.10;;;18.40;99.90;;;;;;5051609;28;20029;-67
2023/09/21 10:01:16;;;;;;;152.90;145.18;;;18.40;99.90;;;;;;5050617;28;20040;-67
2023/09/21 10:03:43;;;;;;;133.93;127.25;;;18.40;99.90;;;;;;5051330;28;20029;-67
2023/09/21 10:06:14;;;;;;;172.90;164.25;;;18.40;99.90;;;;;;5050580;28;20056;-67
2023/09/21 10:08:41;;;;;;;142.40;135.18;;;18.50;99.90;;;;;;5051757;28;20426;-73
2023/09/21 10:11:07;;;;;;;160.93;152.85;;;18.50;99.90;;;;;;5050594;28;20037;-73
2023/09/21 10:13:48;;;;;;;143.32;136.02;;;18.50;99.90;;;;;;5050482;28;20045;-74
2023/09/21 10:16:17;;;;;;;153.70;145.88;;;18.50;99.90;;;;;;5051639;28;20037;-73
2023/09/21 10:18:43;;;;;;;115.15;109.38;;;18.40;99.90;;;;;;5051234;28;20467;-73
2023/09/21 10:21:30;;;;;;;133.57;126.72;;;18.40;99.90;;;;;;5033596;28;20391;-73
2023/09/21 10:24:03;;;;;;;120.30;114.28;;;18.30;99.90;;;;;;5052610;28;20502;-73
2023/09/21 10:26:33;;;;;;;128.98;122.57;;;18.30;99.90;;;;;;5052046;28;20044;-73
2023/09/21 10:29:03;;;;;;;148.63;141.05;;;18.30;99.90;;;;;;5052253;28;20033;-73
2023/09/21 10:31:34;;;;;;;149.48;142.00;;;18.30;99.90;;;;;;5051027;28;20406;-73
2023/09/21 10:34:00;;;;;;;134.98;128.27;;;18.40;99.90;;;;;;5052130;28;20055;-73
2023/09/21 10:36:27;;;;;;;147.00;139.38;;;18.40;99.90;;;;;;5048337;28;20033;-72
2023/09/21 10:39:11;;;;;;;100.18;94.80;;;18.40;99.90;;;;;;5032164;28;20029;-73
2023/09/21 10:41:40;;;;;;;142.88;135.75;;;18.40;99.90;;;;;;5043866;28;20032;-73
2023/09/21 10:44:12;;;;;;;142.15;135.02;;;18.40;99.90;;;;;;5051148;28;20021;-72
2023/09/21 10:46:38;;;;;;;71.65;67.70;;;18.50;99.90;;;;;;5051849;28;20403;-73
2023/09/21 10:49:05;;;;;;;70.20;66.38;;;18.50;99.90;;;;;;5050749;28;20029;-73
2023/09/21 10:51:32;;;;;;;73.47;69.65;;;18.50;99.90;;;;;;5051255;28;20395;-72
2023/09/21 10:53:59;;;;;;;70.63;66.85;;;18.50;99.90;;;;;;5052371;28;20475;-73
2023/09/21 10:56:26;;;;;;;68.93;64.70;;;18.60;99.90;;;;;;5052064;28;20045;-72
2023/09/21 10:58:52;;;;;;;89.55;84.63;;;18.50;99.90;;;;;;5052074;28;20400;-72
2023/09/21 11:01:18;;;;;;;66.85;62.85;;;18.50;99.90;;;;;;5051227;28;20408;-73
2023/09/21 11:03:48;;;;;;;77.40;73.05;;;18.50;99.90;;;;;;5050327;28;20838;-73
2023/09/21 11:06:16;;;;;;;96.82;91.30;;;18.40;99.90;;;;;;5051634;28;20601;-73
2023/09/21 11:08:45;;;;;;;89.28;84.10;;;18.40;99.90;;;;;;5051762;28;20388;-73
2023/09/21 11:11:12;;;;;;;103.15;97.40;;;18.50;99.90;;;;;;5051784;28;20063;-73
2023/09/21 11:13:39;;;;;;;117.65;111.15;;;18.50;99.90;;;;;;5051635;28;20045;-73
2023/09/21 11:16:06;;;;;;;119.85;112.82;;;18.60;99.90;;;;;;5050721;28;20044;-74
2023/09/21 11:18:32;;;;;;;87.25;81.75;;;18.70;99.90;;;;;;5052458;28;20045;-67
2023/09/21 11:20:59;;;;;;;81.50;76.65;;;18.70;99.90;;;;;;5051323;28;20040;-67
2023/09/21 11:23:26;;;;;;;81.32;76.53;;;18.60;99.90;;;;;;5050527;28;20395;-67
2023/09/21 11:25:52;;;;;;;61.70;57.90;;;18.70;99.90;;;;;;5050130;28;20044;-67
2023/09/21 11:28:22;;;;;;;54.40;51.25;;;18.70;99.90;;;;;;5051666;28;20033;-67
2023/09/21 11:30:51;;;;;;;43.53;40.67;;;18.70;99.90;;;;;;5050935;28;20033;-67
2023/09/21 11:33:19;;;;;;;58.28;54.60;;;18.70;99.90;;;;;;5050053;28;20291;-67
2023/09/21 11:35:45;;;;;;;46.70;43.70;;;18.80;99.90;;;;;;5050247;28;20068;-67
2023/09/21 11:38:12;;;;;;;59.70;55.88;;;18.90;99.90;;;;;;5051420;28;20036;-67
2023/09/21 11:40:38;;;;;;;55.55;51.92;;;18.90;99.90;;;;;;5051355;28;20383;-67
2023/09/21 11:43:04;;;;;;;51.67;48.30;;;19.00;99.90;;;;;;5051400;28;20025;-67
2023/09/21 11:45:34;;;;;;;59.47;55.60;;;19.10;99.90;;;;;;5047750;28;20033;-67
2023/09/21 11:48:00;;;;;;;61.33;57.40;;;19.10;99.90;;;;;;5051214;28;20467;-67
2023/09/21 11:50:30;;;;;;;57.15;53.53;;;19.20;99.90;;;;;;5051082;28;20063;-68
2023/09/21 11:52:56;;;;;;;57.28;52.95;;;19.30;99.90;;;;;;5051279;28;20040;-67
2023/09/21 11:55:27;;;;;;;59.58;55.72;;;19.30;99.90;;;;;;5051792;28;20056;-67
2023/09/21 11:57:54;;;;;;;57.80;54.10;;;19.30;99.90;;;;;;5053841;28;20403;-67
2023/09/21 12:00:27;;;;;;;53.13;49.38;;;19.40;99.90;;;;;;5052601;28;20040;-67
2023/09/21 12:02:56;;;;;;;57.55;53.90;;;19.40;99.90;;;;;;5034567;28;20028;-67
2023/09/21 12:05:22;;;;;;;85.05;79.78;;;19.30;99.90;;;;;;5018750;28;20468;-67
2023/09/21 12:07:49;;;;;;;55.47;51.97;;;19.40;99.90;;;;;;5054948;28;20056;-67
2023/09/21 12:10:15;;;;;;;69.00;64.45;;;19.40;99.90;;;;;;5054409;28;20025;-67
2023/09/21 12:12:42;;;;;;;63.50;59.75;;;19.40;99.90;;;;;;5055135;28;20037;-67
2023/09/21 12:15:12;;;;;;;58.10;54.53;;;19.40;99.90;;;;;;5052576;28;20056;-67
2023/09/21 12:17:38;;;;;;;64.13;60.05;;;19.50;99.90;;;;;;5054224;28;20029;-67
2023/09/21 12:20:17;;;;;;;67.53;63.42;;;19.60;99.90;;;;;;5054571;28;20036;-67
2023/09/21 12:22:44;;;;;;;58.85;55.50;;;19.70;99.90;;;;;;5034854;28;20037;-67
2023/09/21 12:25:10;;;;;;;71.07;66.95;;;19.70;99.90;;;;;;5034576;28;20041;-67
2023/09/21 12:27:38;;;;;;;152.52;144.07;;;19.80;99.90;;;;;;5033281;28;20479;-67